Time;durP1;ratioP1;P1;durP2;ratioP2;P2;SDS_P1;SDS_P2;PMS_P1;PMS_P2;Temp;Humidity;BMP_temperature;BMP_pressure;BME280_temperature;BME280_humidity;BME280_pressure;Samples;Min_cycle;Max_cycle;Signal;HPM_P1;HPM_P2
2023/08/06 00:01:18;;;;;;;8.17;7.67;;;;;;;;;;5039537;28;20502;-43
2023/08/06 00:03:47;;;;;;;8.50;7.90;;;;;;;;;;5033451;28;20428;-42
2023/08/06 00:06:15;;;;;;;8.70;8.00;;;;;;;;;;5033039;28;20456;-41
2023/08/06 00:08:42;;;;;;;7.83;7.43;;;;;;;;;;5033264;28;20791;-41
2023/08/06 00:11:10;;;;;;;8.40;7.80;;;;;;;;;;5032127;28;20557;-41
2023/08/06 00:13:37;;;;;;;8.27;7.73;;;;;;;;;;5032414;28;20432;-42
2023/08/06 00:16:11;;;;;;;7.80;7.40;;;;;;;;;;5032320;28;20511;-40
2023/08/06 00:18:39;;;;;;;8.33;7.70;;;;;;;;;;5032743;28;20427;-42
2023/08/06 00:21:08;;;;;;;8.67;8.20;;;;;;;;;;5031915;28;20472;-42
2023/08/06 00:23:35;;;;;;;8.13;7.80;;;;;;;;;;5031802;28;20462;-44
2023/08/06 00:26:03;;;;;;;8.80;8.30;;;;;;;;;;5032593;28;20503;-42
2023/08/06 00:28:30;;;;;;;9.23;8.53;;;;;;;;;;5032522;28;20498;-41
2023/08/06 00:30:58;;;;;;;8.73;8.17;;;;;;;;;;5031802;28;20463;-41
2023/08/06 00:33:26;;;;;;;7.67;7.27;;;;;;;;;;5032194;28;20432;-45
2023/08/06 00:35:53;;;;;;;7.93;7.63;;;;;;;;;;5032371;28;20476;-41
2023/08/06 00:38:22;;;;;;;7.90;7.50;;;;;;;;;;5032258;28;20523;-41
2023/08/06 00:40:50;;;;;;;7.97;7.47;;;;;;;;;;5031674;28;20483;-47
2023/08/06 00:43:17;;;;;;;8.77;8.17;;;;;;;;;;5032153;28;20486;-45
2023/08/06 00:45:45;;;;;;;9.83;9.10;;;;;;;;;;5032272;28;20533;-43
2023/08/06 00:48:12;;;;;;;8.70;8.30;;;;;;;;;;5032287;28;20509;-42
2023/08/06 00:50:40;;;;;;;9.13;8.53;;;;;;;;;;5031704;28;20495;-41
2023/08/06 00:53:08;;;;;;;8.20;7.80;;;;;;;;;;5031993;28;20447;-41
2023/08/06 00:55:37;;;;;;;8.40;8.00;;;;;;;;;;5031675;28;20511;-41
2023/08/06 00:58:04;;;;;;;8.47;7.97;;;;;;;;;;5032226;28;20437;-41
2023/08/06 01:00:32;;;;;;;8.93;8.23;;;;;;;;;;5031604;28;20882;-46
2023/08/06 01:03:00;;;;;;;9.17;8.67;;;;;;;;;;5031700;28;20466;-41
2023/08/06 01:05:28;;;;;;;9.10;8.70;;;;;;;;;;5031488;28;20491;-43
2023/08/06 01:08:03;;;;;;;8.47;8.07;;;;;;;;;;5032154;28;20494;-41
2023/08/06 01:10:37;;;;;;;8.90;8.40;;;;;;;;;;5031379;28;20543;-42
2023/08/06 01:13:09;;;;;;;8.57;8.20;;;;;;;;;;5031836;28;20416;-43
2023/08/06 01:15:42;;;;;;;9.23;8.73;;;;;;;;;;5032091;28;20476;-41
2023/08/06 01:18:09;;;;;;;9.30;8.50;;;;;;;;;;5032045;28;20425;-45
2023/08/06 01:20:38;;;;;;;10.37;9.57;;;;;;;;;;5031316;28;20522;-41
2023/08/06 01:23:06;;;;;;;8.80;8.40;;;;;;;;;;5031586;28;20474;-47
2023/08/06 01:25:34;;;;;;;9.33;8.87;;;;;;;;;;5031689;28;20797;-42
2023/08/06 01:28:05;;;;;;;9.80;9.10;;;;;;;;;;5031398;28;20432;-44
2023/08/06 01:30:35;;;;;;;9.57;8.87;;;;;;;;;;5031068;28;20474;-43
2023/08/06 01:33:05;;;;;;;9.27;8.67;;;;;;;;;;5031596;28;20439;-42
2023/08/06 01:35:33;;;;;;;9.20;8.43;;;;;;;;;;5033197;28;20911;-41
2023/08/06 01:38:03;;;;;;;9.07;8.67;;;;;;;;;;5036058;28;20803;-46
2023/08/06 01:40:31;;;;;;;11.50;10.60;;;;;;;;;;5035063;28;20459;-43
2023/08/06 01:42:59;;;;;;;10.07;9.47;;;;;;;;;;5035668;28;20456;-42
2023/08/06 01:45:26;;;;;;;9.87;9.33;;;;;;;;;;5035584;28;20533;-42
2023/08/06 01:47:54;;;;;;;10.27;9.77;;;;;;;;;;5035449;28;20455;-42
2023/08/06 01:50:21;;;;;;;9.57;9.07;;;;;;;;;;5035119;28;20507;-43
2023/08/06 01:52:49;;;;;;;10.23;9.77;;;;;;;;;;5035343;28;20467;-46
2023/08/06 01:55:18;;;;;;;9.50;9.10;;;;;;;;;;5034905;28;20506;-44
2023/08/06 01:57:45;;;;;;;11.03;10.33;;;;;;;;;;5035057;28;20471;-43
2023/08/06 02:00:13;;;;;;;9.70;9.20;;;;;;;;;;5034702;28;20468;-42
2023/08/06 02:02:41;;;;;;;8.80;8.50;;;;;;;;;;5035164;28;20485;-43
2023/08/06 02:05:09;;;;;;;9.60;8.80;;;;;;;;;;5035091;28;20448;-41
2023/08/06 02:07:36;;;;;;;9.07;8.47;;;;;;;;;;5035288;28;20436;-42
2023/08/06 02:10:04;;;;;;;10.23;9.53;;;;;;;;;;5034517;28;20460;-42
2023/08/06 02:12:33;;;;;;;10.47;9.67;;;;;;;;;;5035087;28;20578;-42
2023/08/06 02:15:01;;;;;;;10.40;9.50;;;;;;;;;;5034764;28;20467;-41
2023/08/06 02:17:28;;;;;;;10.40;9.70;;;;;;;;;;5034607;28;20969;-42
2023/08/06 02:19:56;;;;;;;11.40;10.90;;;;;;;;;;5034372;28;20980;-41
2023/08/06 02:22:23;;;;;;;11.43;10.60;;;;;;;;;;5034684;28;20475;-43
2023/08/06 02:24:51;;;;;;;11.27;10.60;;;;;;;;;;5034833;28;20534;-41
2023/08/06 02:27:18;;;;;;;11.90;11.20;;;;;;;;;;5034841;28;20463;-41
2023/08/06 02:29:47;;;;;;;12.17;11.37;;;;;;;;;;5034438;28;20452;-42
2023/08/06 02:32:15;;;;;;;12.00;10.97;;;;;;;;;;5034691;28;20969;-42
2023/08/06 02:34:42;;;;;;;12.57;11.37;;;;;;;;;;5034420;28;20464;-42
2023/08/06 02:37:10;;;;;;;11.73;11.10;;;;;;;;;;5034230;28;21132;-43
2023/08/06 02:39:39;;;;;;;11.50;10.80;;;;;;;;;;5034137;28;20467;-45
2023/08/06 02:42:07;;;;;;;12.23;11.40;;;;;;;;;;5034412;28;20950;-42
2023/08/06 02:44:34;;;;;;;12.40;11.40;;;;;;;;;;5034490;28;20427;-42
2023/08/06 02:47:04;;;;;;;13.07;12.30;;;;;;;;;;5033677;28;20432;-43
2023/08/06 02:49:31;;;;;;;12.73;11.97;;;;;;;;;;5033840;28;20467;-44
2023/08/06 02:51:59;;;;;;;12.97;11.97;;;;;;;;;;5034018;28;20440;-45
2023/08/06 02:54:26;;;;;;;12.60;11.60;;;;;;;;;;5033886;28;20428;-42
2023/08/06 02:56:54;;;;;;;12.93;12.30;;;;;;;;;;5033964;28;20468;-43
2023/08/06 02:59:21;;;;;;;12.57;11.80;;;;;;;;;;5033832;28;20491;-42
2023/08/06 03:01:49;;;;;;;13.23;12.30;;;;;;;;;;5034191;28;20537;-42
2023/08/06 03:04:18;;;;;;;13.50;12.50;;;;;;;;;;5033768;28;20926;-41
2023/08/06 03:06:46;;;;;;;13.17;12.37;;;;;;;;;;5034032;28;20456;-42
2023/08/06 03:09:12;;;;;;;14.27;13.27;;;;;;;;;;5033822;28;20461;-41
2023/08/06 03:11:40;;;;;;;13.17;12.47;;;;;;;;;;5033749;28;20471;-43
2023/08/06 03:14:07;;;;;;;13.70;12.40;;;;;;;;;;5033688;28;20498;-41
2023/08/06 03:16:35;;;;;;;13.87;13.07;;;;;;;;;;5033527;28;20543;-42
2023/08/06 03:19:02;;;;;;;12.50;11.90;;;;;;;;;;5033289;28;20433;-42
2023/08/06 03:21:31;;;;;;;12.70;12.20;;;;;;;;;;5033731;28;20983;-42
2023/08/06 03:23:59;;;;;;;12.97;12.07;;;;;;;;;;5033713;28;21209;-42
2023/08/06 03:26:26;;;;;;;12.60;12.07;;;;;;;;;;5033695;28;20464;-42
2023/08/06 03:28:54;;;;;;;12.60;11.73;;;;;;;;;;5033451;28;20460;-42
2023/08/06 03:31:22;;;;;;;13.37;12.47;;;;;;;;;;5033596;28;20793;-44
2023/08/06 03:33:49;;;;;;;13.60;12.77;;;;;;;;;;5033551;28;20511;-42
2023/08/06 03:36:17;;;;;;;12.47;11.87;;;;;;;;;;5033641;28;20456;-42
2023/08/06 03:38:46;;;;;;;13.23;12.33;;;;;;;;;;5033454;28;20535;-43
2023/08/06 03:41:13;;;;;;;13.50;12.80;;;;;;;;;;5033288;28;20428;-42
2023/08/06 03:43:41;;;;;;;12.97;12.30;;;;;;;;;;5033570;28;20455;-41
2023/08/06 03:46:08;;;;;;;13.20;12.50;;;;;;;;;;5033170;28;20958;-41
2023/08/06 03:48:36;;;;;;;13.53;12.80;;;;;;;;;;5033076;28;21013;-41
2023/08/06 03:51:04;;;;;;;14.13;13.13;;;;;;;;;;5032863;28;20536;-41
2023/08/06 03:53:31;;;;;;;14.03;13.23;;;;;;;;;;5033127;28;20456;-43
2023/08/06 03:56:00;;;;;;;14.20;13.30;;;;;;;;;;5033258;28;20488;-43
2023/08/06 03:58:28;;;;;;;14.80;13.80;;;;;;;;;;5032027;28;20479;-41
2023/08/06 04:00:59;;;;;;;14.77;13.87;;;;;;;;;;5032317;28;20460;-42
2023/08/06 04:03:27;;;;;;;14.53;13.93;;;;;;;;;;5033056;28;20471;-41
2023/08/06 04:05:55;;;;;;;14.90;13.93;;;;;;;;;;5032955;28;20855;-43
2023/08/06 04:08:22;;;;;;;15.50;14.50;;;;;;;;;;5032684;28;20772;-43
2023/08/06 04:10:50;;;;;;;16.20;15.30;;;;;;;;;;5032211;28;21093;-43
2023/08/06 04:13:20;;;;;;;17.17;16.10;;;;;;;;;;5032468;28;20493;-41
2023/08/06 04:15:48;;;;;;;16.43;15.03;;;;;;;;;;5032263;28;20463;-41
2023/08/06 04:18:15;;;;;;;16.90;15.83;;;;;;;;;;5032688;28;20476;-42
2023/08/06 04:20:45;;;;;;;16.00;15.10;;;;;;;;;;5032232;28;20524;-41
2023/08/06 04:23:13;;;;;;;16.20;15.17;;;;;;;;;;5032229;28;20451;-41
2023/08/06 04:25:41;;;;;;;16.67;15.67;;;;;;;;;;5032604;28;20814;-41
2023/08/06 04:28:08;;;;;;;16.97;16.07;;;;;;;;;;5032545;28;21162;-42
2023/08/06 04:30:37;;;;;;;17.40;16.10;;;;;;;;;;5031880;28;20460;-42
2023/08/06 04:33:05;;;;;;;19.40;18.17;;;;;;;;;;5032379;28;20436;-42
2023/08/06 04:35:33;;;;;;;18.50;17.40;;;;;;;;;;5032363;28;20475;-44
2023/08/06 04:38:00;;;;;;;18.83;17.60;;;;;;;;;;5032380;28;20468;-41
2023/08/06 04:40:27;;;;;;;19.07;17.87;;;;;;;;;;5031635;28;20460;-41
2023/08/06 04:42:55;;;;;;;17.90;17.10;;;;;;;;;;5032368;28;20468;-41
2023/08/06 04:45:24;;;;;;;19.27;18.17;;;;;;;;;;5032102;28;20535;-41
2023/08/06 04:47:53;;;;;;;19.10;17.87;;;;;;;;;;5032042;28;20439;-42
2023/08/06 04:50:20;;;;;;;19.27;18.10;;;;;;;;;;5031788;28;20471;-41
2023/08/06 04:52:48;;;;;;;20.03;18.83;;;;;;;;;;5031973;28;20436;-41
2023/08/06 04:55:15;;;;;;;19.53;18.20;;;;;;;;;;5031898;28;20455;-41
2023/08/06 04:57:43;;;;;;;20.50;19.00;;;;;;;;;;5031871;28;20471;-41
2023/08/06 05:00:11;;;;;;;19.20;18.20;;;;;;;;;;5031466;28;20464;-43
2023/08/06 05:02:38;;;;;;;19.90;18.80;;;;;;;;;;5031926;28;20460;-41
2023/08/06 05:05:08;;;;;;;18.83;17.63;;;;;;;;;;5031609;28;20479;-42
2023/08/06 05:07:35;;;;;;;20.90;19.80;;;;;;;;;;5030858;28;20887;-41
2023/08/06 05:10:04;;;;;;;20.67;19.50;;;;;;;;;;5028285;28;20998;-43
2023/08/06 05:12:32;;;;;;;23.10;21.83;;;;;;;;;;5031184;28;20442;-41
2023/08/06 05:14:59;;;;;;;21.47;20.37;;;;;;;;;;5029697;28;20452;-42
2023/08/06 05:17:27;;;;;;;21.57;20.00;;;;;;;;;;5029921;28;20460;-43
2023/08/06 05:19:55;;;;;;;21.17;20.03;;;;;;;;;;5029052;28;20470;-44
2023/08/06 05:22:24;;;;;;;22.23;20.40;;;;;;;;;;5031214;28;20472;-42
2023/08/06 05:24:51;;;;;;;21.57;20.33;;;;;;;;;;5031822;28;20842;-46
2023/08/06 05:27:19;;;;;;;20.40;19.20;;;;;;;;;;5031898;28;20779;-43
2023/08/06 05:29:49;;;;;;;22.67;21.17;;;;;;;;;;5031293;28;20464;-41
2023/08/06 05:32:17;;;;;;;22.20;20.60;;;;;;;;;;5029480;28;20492;-42
2023/08/06 05:34:44;;;;;;;22.97;21.70;;;;;;;;;;5030482;28;20463;-47
2023/08/06 05:37:11;;;;;;;24.10;22.67;;;;;;;;;;5030109;28;20861;-42
2023/08/06 05:39:40;;;;;;;23.27;21.80;;;;;;;;;;5029440;28;20479;-41
2023/08/06 05:42:08;;;;;;;24.10;22.53;;;;;;;;;;5030319;28;20436;-41
2023/08/06 05:44:35;;;;;;;23.83;22.40;;;;;;;;;;5030498;28;20470;-44
2023/08/06 05:47:03;;;;;;;23.70;22.17;;;;;;;;;;5030233;28;20861;-42
2023/08/06 05:49:31;;;;;;;22.77;21.53;;;;;;;;;;5029360;28;20514;-42
2023/08/06 05:51:59;;;;;;;23.13;21.87;;;;;;;;;;5030379;28;20460;-44
2023/08/06 05:54:26;;;;;;;22.70;21.30;;;;;;;;;;5030114;28;20456;-44
2023/08/06 05:56:55;;;;;;;23.17;21.90;;;;;;;;;;5030337;28;20432;-43
2023/08/06 05:59:23;;;;;;;22.43;21.10;;;;;;;;;;5029080;28;20471;-41
2023/08/06 06:01:50;;;;;;;23.40;22.00;;;;;;;;;;5029616;28;20497;-42
2023/08/06 06:04:18;;;;;;;22.60;21.40;;;;;;;;;;5030352;28;20439;-41
2023/08/06 06:06:46;;;;;;;21.50;20.33;;;;;;;;;;5029712;28;20448;-42
2023/08/06 06:09:13;;;;;;;21.80;20.70;;;;;;;;;;5029133;28;20534;-42
2023/08/06 06:11:41;;;;;;;22.20;21.00;;;;;;;;;;5029899;28;20436;-42
2023/08/06 06:14:10;;;;;;;22.40;21.03;;;;;;;;;;5030239;28;20460;-42
2023/08/06 06:16:37;;;;;;;21.80;20.60;;;;;;;;;;5029752;28;20452;-42
2023/08/06 06:19:04;;;;;;;22.50;21.33;;;;;;;;;;5028653;28;20499;-41
2023/08/06 06:21:32;;;;;;;23.07;21.80;;;;;;;;;;5031532;28;20467;-41
2023/08/06 06:24:00;;;;;;;23.43;22.13;;;;;;;;;;5033133;28;20535;-41
2023/08/06 06:26:28;;;;;;;23.17;22.10;;;;;;;;;;5033930;28;20459;-44
2023/08/06 06:28:55;;;;;;;23.33;21.73;;;;;;;;;;5032324;28;20478;-42
2023/08/06 06:31:25;;;;;;;22.43;21.43;;;;;;;;;;5033069;28;21040;-41
2023/08/06 06:33:54;;;;;;;22.10;21.03;;;;;;;;;;5033098;28;20446;-43
2023/08/06 06:36:21;;;;;;;23.70;22.03;;;;;;;;;;5033770;28;20487;-41
2023/08/06 06:38:49;;;;;;;22.23;21.03;;;;;;;;;;5032426;28;20472;-41
2023/08/06 06:41:16;;;;;;;22.73;21.40;;;;;;;;;;5033225;28;20431;-41
2023/08/06 06:43:44;;;;;;;23.77;22.37;;;;;;;;;;5032982;28;20502;-42
2023/08/06 06:46:11;;;;;;;22.63;21.23;;;;;;;;;;5033624;28;20439;-42
2023/08/06 06:48:40;;;;;;;23.53;21.43;;;;;;;;;;5032837;28;20431;-42
2023/08/06 06:51:08;;;;;;;22.27;21.27;;;;;;;;;;5032224;28;20492;-42
2023/08/06 06:53:36;;;;;;;21.80;20.50;;;;;;;;;;5032958;28;20482;-42
2023/08/06 06:56:04;;;;;;;22.27;21.17;;;;;;;;;;5033569;28;20483;-41
2023/08/06 06:58:32;;;;;;;22.60;21.10;;;;;;;;;;5032873;28;20468;-41
2023/08/06 07:00:59;;;;;;;21.80;20.50;;;;;;;;;;5032072;28;20526;-41
2023/08/06 07:03:27;;;;;;;21.20;20.10;;;;;;;;;;5032778;28;20494;-44
2023/08/06 07:05:59;;;;;;;21.30;20.20;;;;;;;;;;5032924;28;20456;-44
2023/08/06 07:08:27;;;;;;;21.20;20.23;;;;;;;;;;5032797;28;20481;-41
2023/08/06 07:11:00;;;;;;;21.70;20.70;;;;;;;;;;5031826;28;20850;-41
2023/08/06 07:13:28;;;;;;;21.60;20.20;;;;;;;;;;5032420;28;20432;-47
2023/08/06 07:15:56;;;;;;;20.73;19.73;;;;;;;;;;5032519;28;20543;-43
2023/08/06 07:18:23;;;;;;;19.47;18.50;;;;;;;;;;5032681;28;20452;-42
2023/08/06 07:20:51;;;;;;;20.63;19.57;;;;;;;;;;5031207;28;20545;-44
2023/08/06 07:23:21;;;;;;;20.63;19.83;;;;;;;;;;5032224;28;20442;-42
2023/08/06 07:25:49;;;;;;;20.50;19.40;;;;;;;;;;5032664;28;20462;-43
2023/08/06 07:28:17;;;;;;;20.60;19.60;;;;;;;;;;5032454;28;20452;-42
2023/08/06 07:30:44;;;;;;;20.27;19.27;;;;;;;;;;5030926;28;20887;-42
2023/08/06 07:33:12;;;;;;;20.70;19.87;;;;;;;;;;5032356;28;20854;-43
2023/08/06 07:35:40;;;;;;;21.17;20.13;;;;;;;;;;5032205;28;20462;-43
2023/08/06 07:38:08;;;;;;;21.10;20.10;;;;;;;;;;5032125;28;20517;-44
2023/08/06 07:40:37;;;;;;;21.70;20.40;;;;;;;;;;5031168;28;20468;-41
2023/08/06 07:43:05;;;;;;;21.83;20.20;;;;;;;;;;5032362;28;20459;-41
2023/08/06 07:45:33;;;;;;;20.50;19.70;;;;;;;;;;5031964;28;20467;-41
2023/08/06 07:48:01;;;;;;;20.43;19.60;;;;;;;;;;5032175;28;20522;-41
2023/08/06 07:50:28;;;;;;;19.93;19.03;;;;;;;;;;5031166;28;20468;-41
2023/08/06 07:52:56;;;;;;;21.00;20.10;;;;;;;;;;5032027;28;20886;-41
2023/08/06 07:55:23;;;;;;;19.43;18.70;;;;;;;;;;5031811;28;20456;-41
2023/08/06 07:57:52;;;;;;;19.57;18.73;;;;;;;;;;5031559;28;20447;-41
2023/08/06 08:00:20;;;;;;;19.87;19.07;;;;;;;;;;5030891;28;20563;-41
2023/08/06 08:02:47;;;;;;;19.80;18.63;;;;;;;;;;5031537;28;20986;-41
2023/08/06 08:05:15;;;;;;;20.33;19.53;;;;;;;;;;5031678;28;20456;-41
2023/08/06 08:07:44;;;;;;;20.77;19.70;;;;;;;;;;5031937;28;20435;-40
2023/08/06 08:10:11;;;;;;;20.03;19.13;;;;;;;;;;5030662;28;20470;-41
2023/08/06 08:12:39;;;;;;;20.00;19.10;;;;;;;;;;5031490;28;20442;-41
2023/08/06 08:15:08;;;;;;;21.60;20.50;;;;;;;;;;5032035;28;20521;-41
2023/08/06 08:17:36;;;;;;;20.40;19.60;;;;;;;;;;5031719;28;20436;-41
2023/08/06 08:20:04;;;;;;;20.37;19.67;;;;;;;;;;5030170;28;20475;-41
2023/08/06 08:22:31;;;;;;;21.47;20.30;;;;;;;;;;5031203;28;20509;-43
2023/08/06 08:24:59;;;;;;;20.57;19.73;;;;;;;;;;5031708;28;20456;-41
2023/08/06 08:27:26;;;;;;;21.80;20.90;;;;;;;;;;5031551;28;20535;-41
2023/08/06 08:29:55;;;;;;;21.03;19.90;;;;;;;;;;5029689;28;20563;-43
2023/08/06 08:32:24;;;;;;;21.50;20.40;;;;;;;;;;5031616;28;20434;-41
2023/08/06 08:34:52;;;;;;;23.60;22.40;;;;;;;;;;5022975;28;20460;-43
2023/08/06 08:37:19;;;;;;;23.37;22.27;;;;;;;;;;5031102;28;20489;-41
2023/08/06 08:39:47;;;;;;;23.40;22.40;;;;;;;;;;5029863;28;20495;-44
2023/08/06 08:42:14;;;;;;;23.87;22.60;;;;;;;;;;5031135;28;20431;-41
2023/08/06 08:44:43;;;;;;;22.80;21.90;;;;;;;;;;5030042;28;20527;-42
2023/08/06 08:47:11;;;;;;;22.77;21.73;;;;;;;;;;5030961;28;20424;-42
2023/08/06 08:49:41;;;;;;;22.83;21.53;;;;;;;;;;5029959;28;20460;-41
2023/08/06 08:52:12;;;;;;;23.00;21.90;;;;;;;;;;5030592;28;20431;-41
2023/08/06 08:54:40;;;;;;;22.47;21.47;;;;;;;;;;5030854;28;20424;-41
2023/08/06 08:57:08;;;;;;;21.53;20.63;;;;;;;;;;5030692;28;20435;-41
2023/08/06 08:59:36;;;;;;;22.10;21.20;;;;;;;;;;5029780;28;20729;-41
2023/08/06 09:02:04;;;;;;;22.40;21.50;;;;;;;;;;5030636;28;20498;-41
2023/08/06 09:04:33;;;;;;;22.10;21.00;;;;;;;;;;5030457;28;20446;-41
2023/08/06 09:07:03;;;;;;;22.00;21.10;;;;;;;;;;5030547;28;20431;-44
2023/08/06 09:09:33;;;;;;;20.97;20.23;;;;;;;;;;5029860;28;20469;-43
2023/08/06 09:12:02;;;;;;;21.27;20.37;;;;;;;;;;5030601;28;20523;-47
2023/08/06 09:14:30;;;;;;;21.90;21.00;;;;;;;;;;5030320;28;20474;-41
2023/08/06 09:16:58;;;;;;;20.60;19.80;;;;;;;;;;5030812;28;20489;-41
2023/08/06 09:19:27;;;;;;;20.93;20.03;;;;;;;;;;5029688;28;20467;-41
2023/08/06 09:21:56;;;;;;;19.73;18.93;;;;;;;;;;5030270;28;20847;-42
2023/08/06 09:24:26;;;;;;;20.57;19.37;;;;;;;;;;5030559;28;20424;-44
2023/08/06 09:26:54;;;;;;;20.70;19.70;;;;;;;;;;5031095;28;20438;-41
2023/08/06 09:29:21;;;;;;;19.33;18.50;;;;;;;;;;5029485;28;20470;-41
2023/08/06 09:31:52;;;;;;;19.60;18.60;;;;;;;;;;5030038;28;20463;-42
2023/08/06 09:34:21;;;;;;;18.47;17.67;;;;;;;;;;5030362;28;20436;-40
2023/08/06 09:36:50;;;;;;;19.47;18.67;;;;;;;;;;5030538;28;20463;-40
2023/08/06 09:39:18;;;;;;;17.60;16.90;;;;;;;;;;5028405;28;20471;-43
2023/08/06 09:41:48;;;;;;;17.83;17.03;;;;;;;;;;5030267;28;20618;-41
2023/08/06 09:44:16;;;;;;;18.63;17.63;;;;;;;;;;5030121;28;20949;-43
2023/08/06 09:46:47;;;;;;;18.27;17.60;;;;;;;;;;5030057;28;20546;-44
2023/08/06 09:49:15;;;;;;;17.53;16.83;;;;;;;;;;5029370;28;20455;-42
2023/08/06 09:51:44;;;;;;;18.83;18.03;;;;;;;;;;5029927;28;20451;-41
2023/08/06 09:54:13;;;;;;;18.00;17.30;;;;;;;;;;5030395;28;20917;-41
2023/08/06 09:56:55;;;;;;;16.17;15.47;;;;;;;;;;5032489;28;21047;-41
2023/08/06 09:59:23;;;;;;;16.53;15.80;;;;;;;;;;5033374;28;20466;-43
2023/08/06 10:01:52;;;;;;;15.73;15.03;;;;;;;;;;5033589;28;20478;-42
2023/08/06 10:04:21;;;;;;;16.57;15.73;;;;;;;;;;5033954;28;20442;-42
2023/08/06 10:06:54;;;;;;;14.07;13.40;;;;;;;;;;5034126;28;20869;-43
2023/08/06 10:09:22;;;;;;;14.80;14.10;;;;;;;;;;5032932;28;20977;-41
2023/08/06 10:11:51;;;;;;;13.83;12.93;;;;;;;;;;5033898;28;20462;-43
2023/08/06 10:14:22;;;;;;;13.00;12.40;;;;;;;;;;5033593;28;20431;-42
2023/08/06 10:16:49;;;;;;;12.47;11.70;;;;;;;;;;5033961;28;20459;-46
2023/08/06 10:19:17;;;;;;;12.60;11.90;;;;;;;;;;5032993;28;20517;-43
2023/08/06 10:22:00;;;;;;;11.30;10.90;;;;;;;;;;5034093;28;20475;-42
2023/08/06 10:24:27;;;;;;;10.80;10.40;;;;;;;;;;5034482;28;20489;-41
2023/08/06 10:26:57;;;;;;;9.80;9.50;;;;;;;;;;5034698;28;20949;-42
2023/08/06 10:29:39;;;;;;;9.50;9.10;;;;;;;;;;5033593;28;20521;-43
2023/08/06 10:32:06;;;;;;;8.77;8.47;;;;;;;;;;5034239;28;20934;-40
2023/08/06 10:34:52;;;;;;;8.57;8.17;;;;;;;;;;5034805;28;20577;-40
2023/08/06 10:37:20;;;;;;;8.77;8.23;;;;;;;;;;5032905;28;21012;-41
2023/08/06 10:39:49;;;;;;;8.27;7.77;;;;;;;;;;5034027;28;20465;-42
2023/08/06 10:42:20;;;;;;;7.03;6.73;;;;;;;;;;5034534;28;20562;-42
2023/08/06 10:45:03;;;;;;;7.43;6.97;;;;;;;;;;5033998;28;20435;-41
2023/08/06 10:47:38;;;;;;;7.23;6.73;;;;;;;;;;5017934;28;20450;-42
2023/08/06 10:50:12;;;;;;;6.67;6.17;;;;;;;;;;5033847;28;20546;-41
2023/08/06 10:52:40;;;;;;;6.50;6.10;;;;;;;;;;5034124;28;20435;-41
2023/08/06 10:55:09;;;;;;;6.70;6.40;;;;;;;;;;5032781;28;20451;-41
2023/08/06 10:57:36;;;;;;;6.10;5.80;;;;;;;;;;5033094;28;20443;-47
2023/08/06 11:00:05;;;;;;;6.87;6.57;;;;;;;;;;5033537;28;20495;-41
2023/08/06 11:02:44;;;;;;;6.47;6.07;;;;;;;;;;5034231;28;20461;-44
2023/08/06 11:05:12;;;;;;;5.83;5.53;;;;;;;;;;5034025;28;20491;-41
2023/08/06 11:07:40;;;;;;;6.60;6.10;;;;;;;;;;5033699;28;20486;-41
2023/08/06 11:10:08;;;;;;;5.70;5.50;;;;;;;;;;5033406;28;20543;-42
2023/08/06 11:12:36;;;;;;;6.40;5.83;;;;;;;;;;5033642;28;20867;-42
2023/08/06 11:15:04;;;;;;;7.43;6.93;;;;;;;;;;5033826;28;20547;-44
2023/08/06 11:17:32;;;;;;;6.43;6.13;;;;;;;;;;5033907;28;20490;-41
2023/08/06 11:20:01;;;;;;;7.03;6.03;;;;;;;;;;5033396;28;20467;-43
2023/08/06 11:22:29;;;;;;;5.70;5.47;;;;;;;;;;5033771;28;20857;-43
2023/08/06 11:24:56;;;;;;;5.90;5.40;;;;;;;;;;5033941;28;20443;-44
2023/08/06 11:27:26;;;;;;;6.07;5.77;;;;;;;;;;5033205;28;20475;-46
2023/08/06 11:29:54;;;;;;;5.90;5.60;;;;;;;;;;5033264;28;20459;-42
2023/08/06 11:32:22;;;;;;;5.37;5.07;;;;;;;;;;5033808;28;20838;-43
2023/08/06 11:34:49;;;;;;;5.93;5.60;;;;;;;;;;5033541;28;20452;-43
2023/08/06 11:37:22;;;;;;;5.33;5.10;;;;;;;;;;5033570;28;20482;-42
2023/08/06 11:39:50;;;;;;;5.80;5.50;;;;;;;;;;5032786;28;21029;-44
2023/08/06 11:42:17;;;;;;;10.83;6.00;;;;;;;;;;5033168;28;20471;-43
2023/08/06 11:44:45;;;;;;;5.50;5.20;;;;;;;;;;5033198;28;20444;-44
2023/08/06 11:47:14;;;;;;;8.27;5.50;;;;;;;;;;5033290;28;20811;-41
2023/08/06 11:49:44;;;;;;;7.20;5.37;;;;;;;;;;5032924;28;20459;-43
2023/08/06 11:52:13;;;;;;;7.90;5.23;;;;;;;;;;5033290;28;20486;-41
2023/08/06 11:54:42;;;;;;;5.80;5.50;;;;;;;;;;5031799;28;20468;-43
2023/08/06 11:57:11;;;;;;;5.73;5.33;;;;;;;;;;5032744;28;20435;-41
2023/08/06 11:59:39;;;;;;;5.20;4.80;;;;;;;;;;5032434;28;20463;-46
2023/08/06 12:02:10;;;;;;;5.73;5.33;;;;;;;;;;5032691;28;20471;-43
2023/08/06 12:04:56;;;;;;;6.30;5.80;;;;;;;;;;5032612;28;20431;-42
2023/08/06 12:07:26;;;;;;;5.57;5.17;;;;;;;;;;5032831;28;20494;-45
2023/08/06 12:09:55;;;;;;;6.93;5.50;;;;;;;;;;5032005;28;20531;-42
2023/08/06 12:12:23;;;;;;;5.97;5.67;;;;;;;;;;5032644;28;20881;-42
2023/08/06 12:14:50;;;;;;;11.13;5.57;;;;;;;;;;5032512;28;20447;-41
2023/08/06 12:17:18;;;;;;;5.23;4.90;;;;;;;;;;5032330;28;20554;-43
2023/08/06 12:19:46;;;;;;;5.37;5.03;;;;;;;;;;5031171;28;20466;-42
2023/08/06 12:22:14;;;;;;;6.57;5.50;;;;;;;;;;5031960;28;20518;-41
2023/08/06 12:24:42;;;;;;;5.33;4.93;;;;;;;;;;5031880;28;21060;-42
2023/08/06 12:27:11;;;;;;;8.03;5.50;;;;;;;;;;5031802;28;20442;-42
2023/08/06 12:29:41;;;;;;;5.50;5.20;;;;;;;;;;5031817;28;20740;-43
2023/08/06 12:32:09;;;;;;;5.73;5.40;;;;;;;;;;5032555;28;20451;-41
2023/08/06 12:34:36;;;;;;;5.13;4.83;;;;;;;;;;5032261;28;20467;-41
2023/08/06 12:37:19;;;;;;;5.87;4.80;;;;;;;;;;5032136;28;20439;-43
2023/08/06 12:39:47;;;;;;;4.73;4.33;;;;;;;;;;5031364;28;20851;-41
2023/08/06 12:42:16;;;;;;;5.50;5.10;;;;;;;;;;5031818;28;20475;-43
2023/08/06 12:44:44;;;;;;;5.80;5.17;;;;;;;;;;5032142;28;20515;-42
2023/08/06 12:47:11;;;;;;;5.70;5.20;;;;;;;;;;5031981;28;20439;-42
2023/08/06 12:49:39;;;;;;;6.23;5.73;;;;;;;;;;5031734;28;20460;-41
2023/08/06 12:52:09;;;;;;;5.00;4.70;;;;;;;;;;5032084;28;20432;-42
2023/08/06 12:54:37;;;;;;;5.33;4.97;;;;;;;;;;5031794;28;20876;-43
2023/08/06 12:57:05;;;;;;;5.20;4.73;;;;;;;;;;5032244;28;20463;-45
2023/08/06 12:59:36;;;;;;;5.63;5.33;;;;;;;;;;5031517;28;20988;-41
2023/08/06 13:02:04;;;;;;;4.60;4.40;;;;;;;;;;5031678;28;20471;-41
2023/08/06 13:04:33;;;;;;;5.03;4.73;;;;;;;;;;5031688;28;20884;-43
2023/08/06 13:07:01;;;;;;;5.60;5.17;;;;;;;;;;5031784;28;20530;-42
2023/08/06 13:09:30;;;;;;;5.53;4.97;;;;;;;;;;5030871;28;20456;-42
2023/08/06 13:11:59;;;;;;;4.57;4.27;;;;;;;;;;5031826;28;21017;-42
2023/08/06 13:14:28;;;;;;;5.47;4.97;;;;;;;;;;5031757;28;20432;-42
2023/08/06 13:16:57;;;;;;;4.97;4.67;;;;;;;;;;5031615;28;20440;-42
2023/08/06 13:19:25;;;;;;;5.27;4.97;;;;;;;;;;5031049;28;21009;-41
2023/08/06 13:21:59;;;;;;;5.50;5.10;;;;;;;;;;5031021;28;20489;-43
2023/08/06 13:24:28;;;;;;;5.73;5.00;;;;;;;;;;5031509;28;20499;-41
2023/08/06 13:26:55;;;;;;;5.60;5.20;;;;;;;;;;5031620;28;20810;-41
2023/08/06 13:29:23;;;;;;;7.23;5.10;;;;;;;;;;5031037;28;20455;-41
2023/08/06 13:31:51;;;;;;;4.80;4.40;;;;;;;;;;5037975;28;21086;-42
2023/08/06 13:34:20;;;;;;;4.70;4.47;;;;;;;;;;5038334;28;20516;-41
2023/08/06 13:36:47;;;;;;;5.93;5.10;;;;;;;;;;5038374;28;20455;-41
2023/08/06 13:39:17;;;;;;;5.07;4.57;;;;;;;;;;5037366;28;20526;-41
2023/08/06 13:41:45;;;;;;;4.90;4.60;;;;;;;;;;5038027;28;20435;-41
2023/08/06 13:44:14;;;;;;;5.30;4.80;;;;;;;;;;5038203;28;20471;-43
2023/08/06 13:46:42;;;;;;;4.20;3.90;;;;;;;;;;5037913;28;20525;-42
2023/08/06 13:49:09;;;;;;;4.77;4.50;;;;;;;;;;5037740;28;20448;-43
2023/08/06 13:51:38;;;;;;;5.40;5.10;;;;;;;;;;5037801;28;20435;-41
2023/08/06 13:54:06;;;;;;;5.80;4.70;;;;;;;;;;5037993;28;20427;-42
2023/08/06 13:56:34;;;;;;;5.40;5.07;;;;;;;;;;5037754;28;20602;-42
2023/08/06 13:59:01;;;;;;;5.20;4.90;;;;;;;;;;5037378;28;20922;-43
2023/08/06 14:01:29;;;;;;;5.17;4.67;;;;;;;;;;5037773;28;20510;-43
2023/08/06 14:04:16;;;;;;;5.10;4.70;;;;;;;;;;5037880;28;20507;-42
2023/08/06 14:06:44;;;;;;;5.77;4.70;;;;;;;;;;5037512;28;20530;-42
2023/08/06 14:09:14;;;;;;;4.97;4.67;;;;;;;;;;5037425;28;20538;-43
2023/08/06 14:11:42;;;;;;;5.37;4.97;;;;;;;;;;5037593;28;20508;-43
2023/08/06 14:14:09;;;;;;;5.93;4.50;;;;;;;;;;5038292;28;20509;-43
2023/08/06 14:16:37;;;;;;;5.27;4.87;;;;;;;;;;5037781;28;20463;-44
2023/08/06 14:19:04;;;;;;;4.90;4.53;;;;;;;;;;5037169;28;20443;-42
2023/08/06 14:21:32;;;;;;;5.10;4.70;;;;;;;;;;5037037;28;20948;-44
2023/08/06 14:24:01;;;;;;;4.47;4.23;;;;;;;;;;5037631;28;20857;-43
2023/08/06 14:26:28;;;;;;;5.20;4.80;;;;;;;;;;5037723;28;20458;-42
2023/08/06 14:28:56;;;;;;;5.37;4.90;;;;;;;;;;5037115;28;20514;-42
2023/08/06 14:31:23;;;;;;;5.60;5.20;;;;;;;;;;5037599;28;20467;-47
2023/08/06 14:33:51;;;;;;;4.80;4.50;;;;;;;;;;5036860;28;20443;-42
2023/08/06 14:36:18;;;;;;;5.97;5.47;;;;;;;;;;5037515;28;20451;-44